createdAt,value
2018-05-04T00:02:29.261Z,16.57
2018-05-04T00:04:57.847Z,17.97
2018-05-04T00:07:27.109Z,16.73
2018-05-04T00:09:55.640Z,20.00
2018-05-04T00:12:25.001Z,17.60
2018-05-04T00:14:53.587Z,16.70
2018-05-04T00:17:22.166Z,18.50
2018-05-04T00:19:55.796Z,18.53
2018-05-04T00:22:25.264Z,16.10
2018-05-04T00:24:53.896Z,17.80
2018-05-04T00:27:23.216Z,18.50
2018-05-04T00:29:51.490Z,19.00
2018-05-04T00:32:20.050Z,18.20
2018-05-04T00:34:49.393Z,20.63
2018-05-04T00:37:19.024Z,18.20
2018-05-04T00:39:47.599Z,19.37
2018-05-04T00:42:16.930Z,19.00
2018-05-04T00:44:46.381Z,17.20
2018-05-04T00:47:15.009Z,18.43
2018-05-04T00:49:43.550Z,18.47
2018-05-04T00:52:12.220Z,19.67
2018-05-04T00:54:42.917Z,19.50
2018-05-04T00:57:11.517Z,22.83
2018-05-04T00:59:40.067Z,19.00
2018-05-04T01:02:09.397Z,20.57
2018-05-04T01:04:38.756Z,19.67
2018-05-04T01:07:07.336Z,19.27
2018-05-04T01:09:35.571Z,19.20
2018-05-04T01:12:04.231Z,19.63
2018-05-04T01:14:33.524Z,18.93
2018-05-04T01:17:02.980Z,20.97
2018-05-04T01:19:32.112Z,20.60
2018-05-04T01:22:02.611Z,19.93
2018-05-04T01:24:33.842Z,20.77
2018-05-04T01:27:02.417Z,20.00
2018-05-04T01:29:31.020Z,19.67
2018-05-04T01:31:59.662Z,20.20
2018-05-04T01:34:28.516Z,20.30
2018-05-04T01:37:03.728Z,20.60
2018-05-04T01:39:32.295Z,20.13
2018-05-04T01:42:00.813Z,20.10
2018-05-04T01:44:33.104Z,18.60
2018-05-04T01:47:01.661Z,20.53
2018-05-04T01:49:30.208Z,22.30
2018-05-04T01:51:58.800Z,20.77
2018-05-04T01:54:27.436Z,18.27
2018-05-04T01:56:58.090Z,19.30
2018-05-04T01:59:28.792Z,20.63
2018-05-04T02:01:57.055Z,18.37
2018-05-04T02:04:25.673Z,20.70
2018-05-04T02:06:54.191Z,19.53
2018-05-04T02:09:22.851Z,21.83
2018-05-04T02:11:53.393Z,20.10
2018-05-04T02:14:22.834Z,20.23
2018-05-04T02:16:53.320Z,21.70
2018-05-04T02:19:23.557Z,22.50
2018-05-04T02:21:52.189Z,22.07
2018-05-04T02:24:23.568Z,20.40
2018-05-04T02:26:52.267Z,19.80
2018-05-04T02:29:20.820Z,19.20
2018-05-04T02:31:49.356Z,16.87
2018-05-04T02:34:19.758Z,20.57
2018-05-04T02:36:49.496Z,19.63
2018-05-04T02:39:18.040Z,19.07
2018-05-04T02:41:46.704Z,17.77
2018-05-04T02:44:15.249Z,18.60
2018-05-04T02:46:43.776Z,19.23
2018-05-04T02:49:12.296Z,19.07
2018-05-04T02:51:41.613Z,17.87
2018-05-04T02:54:10.198Z,19.93
2018-05-04T02:56:40.060Z,18.87
2018-05-04T02:59:08.674Z,17.07
2018-05-04T03:01:37.224Z,17.00
2018-05-04T03:04:05.767Z,18.90
2018-05-04T03:06:35.545Z,17.37
2018-05-04T03:09:03.348Z,20.13
2018-05-04T03:11:32.626Z,17.03
2018-05-04T03:14:01.214Z,17.67
2018-05-04T03:16:34.990Z,16.70
2018-05-04T03:19:03.494Z,17.43
2018-05-04T03:21:32.084Z,16.17
2018-05-04T03:24:00.615Z,15.27
2018-05-04T03:26:29.933Z,16.77
2018-05-04T03:28:58.423Z,14.83
2018-05-04T03:31:26.949Z,15.50
2018-05-04T03:33:56.335Z,14.23
2018-05-04T03:36:24.906Z,15.27
2018-05-04T03:38:55.038Z,14.50
2018-05-04T03:41:24.398Z,15.20
2018-05-04T03:43:53.482Z,14.80
2018-05-04T03:46:24.412Z,13.70
2018-05-04T03:49:00.016Z,17.93
2018-05-04T03:51:28.639Z,15.20
2018-05-04T03:54:04.983Z,14.40
2018-05-04T03:56:38.054Z,15.10
2018-05-04T03:59:18.458Z,15.50
2018-05-04T04:01:58.271Z,14.53
2018-05-04T04:04:26.880Z,14.87
2018-05-04T04:06:55.409Z,13.23
2018-05-04T04:09:23.942Z,13.60
2018-05-04T04:11:54.809Z,15.83
2018-05-04T04:14:38.693Z,13.40
2018-05-04T04:17:09.870Z,16.87
2018-05-04T04:19:40.315Z,11.50
2018-05-04T04:22:15.617Z,14.37
2018-05-04T04:24:45.087Z,14.73
2018-05-04T04:27:13.567Z,13.03
2018-05-04T04:29:42.082Z,12.80
2018-05-04T04:32:10.649Z,10.77
2018-05-04T04:34:49.023Z,12.23
2018-05-04T04:37:17.602Z,11.57
2018-05-04T04:39:47.963Z,12.07
2018-05-04T04:42:16.570Z,11.93
2018-05-04T04:44:46.563Z,12.20
2018-05-04T04:47:16.313Z,12.73
2018-05-04T04:49:44.884Z,12.37
2018-05-04T04:52:13.862Z,11.30
2018-05-04T04:54:42.412Z,13.47
2018-05-04T04:57:11.717Z,12.03
2018-05-04T04:59:40.306Z,9.93
2018-05-04T05:02:24.252Z,12.43
2018-05-04T05:10:09.517Z,10.77
2018-05-04T05:12:38.116Z,10.27
2018-05-04T05:15:06.713Z,9.10
2018-05-04T05:17:35.234Z,15.73
2018-05-04T05:20:10.297Z,11.80
2018-05-04T05:22:39.744Z,12.07
2018-05-04T05:25:09.028Z,12.10
2018-05-04T05:27:44.351Z,9.63
2018-05-04T05:30:13.449Z,11.07
2018-05-04T05:35:18.805Z,9.30
2018-05-04T05:37:48.085Z,10.57
2018-05-04T05:43:09.800Z,11.03
2018-05-04T05:45:39.310Z,10.67
2018-05-04T05:48:07.615Z,9.80
2018-05-04T05:50:36.615Z,8.90
2018-05-04T05:53:05.123Z,11.67
2018-05-04T05:55:34.479Z,11.93
2018-05-04T05:58:03.764Z,11.93
2018-05-04T06:00:32.303Z,10.90
2018-05-04T06:03:00.828Z,8.63
2018-05-04T06:05:29.368Z,10.30
2018-05-04T06:07:58.645Z,11.13
2018-05-04T06:10:27.176Z,11.17
2018-05-04T06:12:55.449Z,12.23
2018-05-04T06:15:23.973Z,9.93
2018-05-04T06:17:52.517Z,11.27
2018-05-04T06:20:21.807Z,10.87
2018-05-04T06:22:50.340Z,10.77
2018-05-04T06:25:19.668Z,9.40
2018-05-04T06:27:48.465Z,13.50
2018-05-04T06:30:17.956Z,13.07
2018-05-04T06:32:46.503Z,13.67
2018-05-04T06:35:15.016Z,12.27
2018-05-04T06:37:43.578Z,11.77
2018-05-04T06:40:15.110Z,14.07
2018-05-04T06:42:43.623Z,12.00
2018-05-04T06:45:13.367Z,18.63
2018-05-04T06:47:41.872Z,11.93
2018-05-04T06:50:10.413Z,12.13
2018-05-04T06:52:39.041Z,12.47
2018-05-04T06:55:07.571Z,12.73
2018-05-04T06:57:37.324Z,14.80
2018-05-04T07:00:07.040Z,11.27
2018-05-04T07:02:35.537Z,12.77
2018-05-04T07:05:03.722Z,13.83
2018-05-04T07:07:32.258Z,12.47
2018-05-04T07:10:02.431Z,12.83
2018-05-04T07:12:32.961Z,18.00
2018-05-04T07:15:01.484Z,12.00
2018-05-04T07:17:32.596Z,14.37
2018-05-04T07:20:01.155Z,16.50
2018-05-04T07:22:31.975Z,14.63
2018-05-04T07:25:00.488Z,15.73
2018-05-04T07:27:29.046Z,16.33
2018-05-04T07:29:57.624Z,14.80
2018-05-04T07:32:26.921Z,13.27
2018-05-04T07:34:56.204Z,16.07
2018-05-04T07:37:25.609Z,15.17
2018-05-04T07:39:59.367Z,14.00
2018-05-04T07:42:30.847Z,17.03
2018-05-04T07:45:01.967Z,15.63
2018-05-04T07:47:30.497Z,17.80
2018-05-04T07:49:59.544Z,17.17
2018-05-04T07:52:28.121Z,13.83
2018-05-04T07:54:57.542Z,15.67
2018-05-04T07:57:26.060Z,13.30
2018-05-04T07:59:54.566Z,17.20
2018-05-04T08:02:23.138Z,15.60
2018-05-04T08:04:51.713Z,15.13
2018-05-04T08:07:20.259Z,16.60
2018-05-04T08:09:49.637Z,13.23
2018-05-04T08:12:19.152Z,14.30
2018-05-04T08:14:47.471Z,14.27
2018-05-04T08:17:21.288Z,14.40
2018-05-04T08:19:49.907Z,12.87
2018-05-04T08:22:18.470Z,19.73
2018-05-04T08:24:49.520Z,26.83
2018-05-04T08:27:18.157Z,48.33
2018-05-04T08:29:52.168Z,20.93
2018-05-04T08:32:21.185Z,27.60
2018-05-04T08:34:49.847Z,19.57
2018-05-04T08:37:19.611Z,15.97
2018-05-04T08:39:47.978Z,25.87
2018-05-04T08:42:16.659Z,23.53
2018-05-04T08:44:46.498Z,15.87
2018-05-04T08:47:15.862Z,14.23
2018-05-04T08:49:44.434Z,16.77
2018-05-04T08:52:13.783Z,13.73
2018-05-04T08:54:46.352Z,12.60
2018-05-04T08:57:14.960Z,15.37
2018-05-04T08:59:51.499Z,14.57
2018-05-04T09:02:22.034Z,16.07
2018-05-04T09:04:51.324Z,14.93
2018-05-04T09:07:21.390Z,16.93
2018-05-04T09:09:49.952Z,14.13
2018-05-04T09:12:18.550Z,16.23
2018-05-04T09:14:47.088Z,15.87
2018-05-04T09:17:15.620Z,16.73
2018-05-04T09:19:52.535Z,16.40
2018-05-04T09:22:21.247Z,14.77
2018-05-04T09:24:49.780Z,15.47
2018-05-04T09:27:21.573Z,16.13
2018-05-04T09:29:50.133Z,18.60
2018-05-04T09:32:18.731Z,17.27
2018-05-04T09:34:47.281Z,16.37
2018-05-04T09:37:15.887Z,17.50
2018-05-04T09:39:52.235Z,18.57
2018-05-04T09:42:22.526Z,46.97
2018-05-04T09:44:52.059Z,25.60
2018-05-04T09:47:21.417Z,20.33
2018-05-04T09:49:50.465Z,17.20
2018-05-04T09:52:21.361Z,34.97
2018-05-04T09:54:51.202Z,18.03
2018-05-04T09:57:20.605Z,21.50
2018-05-04T10:02:26.268Z,17.93
2018-05-04T10:04:55.393Z,16.60
2018-05-04T10:07:25.655Z,15.07
2018-05-04T10:12:32.710Z,17.80
2018-05-04T10:15:01.051Z,21.00
2018-05-04T10:17:31.531Z,19.47
2018-05-04T10:20:06.243Z,18.53
2018-05-04T10:22:47.526Z,16.63
2018-05-04T10:28:23.481Z,23.63
2018-05-04T11:13:17.189Z,19.07
2018-05-04T11:15:47.610Z,18.07
2018-05-04T11:18:31.804Z,15.90
2018-05-04T11:21:05.426Z,14.03
2018-05-04T11:26:18.378Z,16.70
2018-05-04T11:28:51.731Z,15.13
2018-05-04T11:31:24.945Z,20.33
2018-05-04T11:34:02.069Z,16.37
2018-05-04T11:36:31.235Z,14.07
2018-05-04T11:39:11.170Z,16.57
2018-05-04T11:41:44.645Z,14.23
2018-05-04T11:44:13.954Z,14.17
2018-05-04T11:46:44.237Z,12.63
2018-05-04T11:49:15.593Z,13.73
2018-05-04T11:51:51.126Z,13.87
2018-05-04T11:54:22.188Z,16.43
2018-05-04T11:56:53.035Z,14.63
2018-05-04T11:59:28.085Z,16.40
2018-05-04T12:02:11.233Z,14.80
2018-05-04T12:04:45.560Z,15.97
2018-05-04T12:07:22.068Z,13.50
2018-05-04T12:10:02.022Z,16.03
2018-05-04T12:12:39.506Z,15.13
2018-05-04T12:15:27.573Z,14.23
2018-05-04T12:18:00.258Z,13.47
2018-05-04T12:20:38.256Z,14.37
2018-05-04T12:25:56.383Z,14.97
2018-05-04T12:28:33.123Z,10.90
2018-05-04T12:31:06.707Z,10.47
2018-05-04T12:33:45.713Z,13.13
2018-05-04T12:36:16.735Z,11.63
2018-05-04T12:38:56.493Z,11.87
2018-05-04T12:41:30.801Z,14.60
2018-05-04T12:44:02.808Z,14.27
2018-05-04T12:46:41.859Z,12.60
2018-05-04T12:49:14.048Z,18.67
2018-05-04T12:52:00.062Z,14.17
2018-05-04T12:54:29.157Z,13.83
2018-05-04T12:57:00.235Z,12.10
2018-05-04T12:59:29.724Z,14.17
2018-05-04T13:04:52.491Z,12.40
2018-05-04T13:07:30.735Z,14.10
2018-05-04T13:12:44.774Z,12.60
2018-05-04T13:15:23.816Z,13.80
2018-05-04T13:18:03.335Z,13.00
2018-05-04T13:20:32.844Z,12.83
2018-05-04T14:30:49.656Z,20.70
2018-05-04T14:33:30.887Z,14.43
2018-05-04T14:36:15.389Z,30.27
2018-05-04T14:44:30.108Z,12.07
2018-05-04T14:46:58.541Z,11.77
2018-05-04T14:49:26.980Z,11.17
2018-05-04T14:51:55.441Z,11.20
2018-05-04T14:54:23.873Z,10.83
2018-05-04T14:56:52.309Z,12.90
2018-05-04T14:59:20.752Z,15.67
2018-05-04T15:01:49.182Z,13.60
2018-05-04T15:04:17.684Z,11.37
2018-05-04T15:06:46.881Z,10.20
2018-05-04T15:09:16.088Z,11.37
2018-05-04T15:11:44.525Z,11.87
2018-05-04T15:14:12.645Z,11.17
2018-05-04T15:16:40.860Z,11.37
2018-05-04T15:19:10.065Z,12.17
2018-05-04T15:21:38.499Z,11.47
2018-05-04T15:24:07.024Z,12.80
2018-05-04T15:26:35.568Z,12.80
2018-05-04T15:29:04.008Z,12.00
2018-05-04T15:31:33.285Z,10.83
2018-05-04T15:34:02.615Z,11.67
2018-05-04T15:36:31.809Z,9.70
2018-05-04T15:39:01.012Z,12.33
2018-05-04T15:41:29.452Z,10.00
2018-05-04T15:43:57.918Z,12.00
2018-05-04T15:46:27.140Z,13.33
2018-05-04T15:49:01.033Z,11.77
2018-05-04T15:51:36.240Z,10.73
2018-05-04T15:54:06.185Z,11.73
2018-05-04T15:56:34.624Z,9.53
2018-05-04T15:59:03.065Z,9.17
2018-05-04T16:01:32.260Z,8.47
2018-05-04T16:04:01.477Z,9.97
2018-05-04T16:06:29.414Z,8.80
2018-05-04T16:08:57.862Z,11.27
2018-05-04T16:11:26.289Z,8.77
2018-05-04T16:13:55.503Z,9.07
2018-05-04T16:16:23.707Z,9.93
2018-05-04T16:18:52.132Z,9.20
2018-05-04T16:21:21.009Z,9.40
2018-05-04T16:23:49.426Z,11.60
2018-05-04T16:26:17.885Z,8.50
2018-05-04T16:28:47.084Z,12.80
2018-05-04T16:31:15.686Z,10.53
2018-05-04T16:33:44.137Z,12.47
2018-05-04T16:36:13.350Z,13.50
2018-05-04T16:38:42.574Z,10.17
2018-05-04T16:41:11.938Z,9.70
2018-05-04T16:43:41.161Z,9.10
2018-05-04T16:49:15.777Z,8.83
2018-05-04T16:51:44.964Z,9.67
2018-05-04T16:54:14.181Z,12.50
2018-05-04T16:56:42.387Z,10.10
2018-05-04T16:59:10.856Z,9.13
2018-05-04T17:01:39.057Z,11.13
2018-05-04T17:04:08.796Z,12.53
2018-05-04T17:06:38.501Z,15.73
2018-05-04T17:09:07.485Z,13.17
2018-05-04T17:11:35.924Z,8.80
2018-05-04T17:14:04.154Z,9.33
2018-05-04T17:16:33.363Z,11.40
2018-05-04T17:19:01.561Z,10.10
2018-05-04T17:21:30.001Z,9.03
2018-05-04T17:23:58.625Z,8.63
2018-05-04T17:26:26.837Z,9.57
2018-05-04T17:28:55.295Z,9.53
2018-05-04T17:31:23.724Z,10.53
2018-05-04T17:33:52.152Z,10.07
2018-05-04T17:36:20.597Z,10.80
2018-05-04T17:38:49.052Z,10.53
2018-05-04T17:41:18.251Z,9.47
2018-05-04T17:43:47.456Z,13.67
2018-05-04T17:46:15.881Z,11.73
2018-05-04T17:48:44.115Z,8.83
2018-05-04T17:51:12.555Z,9.43
2018-05-04T17:53:40.989Z,10.40
2018-05-04T17:56:09.422Z,10.40
2018-05-04T17:58:37.878Z,7.97
2018-05-04T18:01:06.887Z,9.47
2018-05-04T18:03:35.520Z,12.03
2018-05-04T18:06:03.675Z,12.50
2018-05-04T18:08:32.097Z,9.37
2018-05-04T18:11:01.289Z,9.30
2018-05-04T18:13:29.729Z,7.20
2018-05-04T18:15:58.200Z,10.07
2018-05-04T18:18:27.413Z,6.87
2018-05-04T18:20:55.844Z,7.23
2018-05-04T18:23:24.286Z,9.70
2018-05-04T18:25:52.742Z,6.00
2018-05-04T18:28:21.196Z,7.83
2018-05-04T18:30:50.394Z,8.43
2018-05-04T18:33:19.606Z,6.87
2018-05-04T18:35:48.788Z,7.80
2018-05-04T18:38:18.061Z,7.63
2018-05-04T18:40:47.410Z,5.23
2018-05-04T18:43:15.833Z,6.13
2018-05-04T18:45:43.914Z,8.03
2018-05-04T18:48:12.095Z,7.83
2018-05-04T18:50:41.424Z,5.87
2018-05-04T18:53:09.844Z,6.83
2018-05-04T18:55:39.102Z,4.47
2018-05-04T18:58:08.397Z,5.17
2018-05-04T19:00:36.828Z,5.03
2018-05-04T19:03:10.660Z,6.07
2018-05-04T19:05:39.956Z,5.80
2018-05-04T19:08:08.444Z,4.47
2018-05-04T19:10:37.649Z,4.13
2018-05-04T19:13:06.859Z,6.60
2018-05-04T19:15:34.958Z,5.57
2018-05-04T19:18:03.409Z,7.60
2018-05-04T19:20:31.858Z,5.60
2018-05-04T19:23:00.246Z,10.57
2018-05-04T19:25:29.453Z,6.90
2018-05-04T20:41:04.461Z,8.50
2018-05-04T20:43:33.659Z,6.40
2018-05-04T20:46:02.855Z,8.10
2018-05-04T20:48:32.066Z,3.53
2018-05-04T20:51:00.509Z,7.00
2018-05-04T20:53:28.959Z,5.87
2018-05-04T20:55:57.596Z,4.10
2018-05-04T20:58:26.789Z,5.07
2018-05-04T21:00:55.998Z,3.63
2018-05-04T21:03:24.419Z,4.17
2018-05-04T21:05:52.853Z,6.40
2018-05-04T21:08:21.295Z,7.27
2018-05-04T21:10:49.836Z,4.57
2018-05-04T21:13:18.275Z,4.30
2018-05-04T21:15:47.505Z,3.83
2018-05-04T21:18:15.939Z,4.40
2018-05-04T21:20:45.142Z,6.87
2018-05-04T21:23:14.349Z,5.47
2018-05-04T21:25:43.547Z,4.97
2018-05-04T21:28:12.743Z,5.30
2018-05-04T21:30:41.940Z,3.87
2018-05-04T21:33:11.172Z,5.60
2018-05-04T21:35:40.294Z,5.73
2018-05-04T21:38:09.197Z,7.27
2018-05-04T21:40:37.834Z,5.53
2018-05-04T21:43:06.262Z,5.30
2018-05-04T21:45:34.752Z,5.80
2018-05-04T21:48:03.951Z,5.87
2018-05-04T21:50:32.919Z,7.50
2018-05-04T21:53:01.363Z,3.93
2018-05-04T21:55:29.569Z,6.93
2018-05-04T21:57:58.025Z,6.40
2018-05-04T22:00:26.131Z,8.97
2018-05-04T22:02:54.560Z,5.57
2018-05-04T22:05:23.006Z,7.83
2018-05-04T22:07:51.858Z,6.13
2018-05-04T22:10:20.303Z,5.07
2018-05-04T22:12:48.729Z,5.50
2018-05-04T22:15:17.177Z,8.83
2018-05-04T22:17:45.377Z,4.03
2018-05-04T22:20:13.833Z,8.23
2018-05-04T22:22:42.260Z,8.50
2018-05-04T22:25:11.457Z,7.77
2018-05-04T22:27:40.756Z,8.10
2018-05-04T22:30:10.106Z,6.20
2018-05-04T22:32:38.568Z,8.63
2018-05-04T22:35:06.996Z,6.20
2018-05-04T22:37:35.427Z,3.93
2018-05-04T22:40:03.615Z,5.40
2018-05-04T22:42:31.807Z,6.70
2018-05-04T22:45:00.261Z,6.63
2018-05-04T22:47:28.708Z,5.70
2018-05-04T22:49:57.206Z,5.03
2018-05-04T22:52:25.627Z,5.90
2018-05-04T22:54:54.061Z,6.30
2018-05-04T22:57:22.484Z,6.47
2018-05-04T22:59:50.938Z,5.27
2018-05-04T23:02:19.371Z,5.57
2018-05-04T23:04:48.566Z,5.97
2018-05-04T23:07:17.776Z,6.77
2018-05-04T23:09:46.238Z,7.40
2018-05-04T23:12:15.445Z,7.57
2018-05-04T23:14:44.655Z,4.73
2018-05-04T23:17:13.118Z,7.57
2018-05-04T23:19:42.314Z,7.03
2018-05-04T23:22:10.844Z,4.30
2018-05-04T23:24:39.762Z,7.27
2018-05-04T23:27:08.261Z,6.20
2018-05-04T23:29:37.469Z,6.63
2018-05-04T23:32:05.949Z,9.10
2018-05-04T23:34:34.401Z,5.23
2018-05-04T23:37:03.340Z,6.57
2018-05-04T23:39:31.771Z,9.07
2018-05-04T23:42:00.987Z,6.23
2018-05-04T23:44:30.183Z,8.23
2018-05-04T23:46:59.413Z,7.17
2018-05-04T23:49:27.849Z,5.53
2018-05-04T23:51:57.048Z,7.20
2018-05-04T23:54:26.252Z,8.23
2018-05-04T23:56:55.498Z,5.80
2018-05-04T23:59:23.933Z,6.63
